sensor_id;sensor_type;location;lat;lon;timestamp;P1;durP1;ratioP1;P2;durP2;ratioP2
36651;SDS011;53334;51.976;20.144;2023-03-13T00:02:00;8.68;;;5.60;;
36651;SDS011;53334;51.976;20.144;2023-03-13T00:04:33;11.00;;;5.15;;
36651;SDS011;53334;51.976;20.144;2023-03-13T00:07:08;11.27;;;5.03;;
36651;SDS011;53334;51.976;20.144;2023-03-13T00:09:41;10.77;;;5.03;;
36651;SDS011;53334;51.976;20.144;2023-03-13T00:12:15;7.78;;;5.90;;
36651;SDS011;53334;51.976;20.144;2023-03-13T00:14:48;8.65;;;4.85;;
36651;SDS011;53334;51.976;20.144;2023-03-13T00:17:21;8.45;;;4.65;;
36651;SDS011;53334;51.976;20.144;2023-03-13T00:19:55;9.07;;;5.22;;
36651;SDS011;53334;51.976;20.144;2023-03-13T00:22:30;7.45;;;4.68;;
36651;SDS011;53334;51.976;20.144;2023-03-13T00:25:03;6.68;;;4.93;;
36651;SDS011;53334;51.976;20.144;2023-03-13T00:27:37;6.82;;;4.57;;
36651;SDS011;53334;51.976;20.144;2023-03-13T00:30:11;5.53;;;4.35;;
36651;SDS011;53334;51.976;20.144;2023-03-13T00:32:46;10.18;;;4.80;;
36651;SDS011;53334;51.976;20.144;2023-03-13T00:35:20;10.15;;;4.70;;
36651;SDS011;53334;51.976;20.144;2023-03-13T00:37:54;5.30;;;4.18;;
36651;SDS011;53334;51.976;20.144;2023-03-13T00:40:28;6.30;;;4.72;;
36651;SDS011;53334;51.976;20.144;2023-03-13T00:43:01;5.15;;;4.20;;
36651;SDS011;53334;51.976;20.144;2023-03-13T00:45:35;8.07;;;5.10;;
36651;SDS011;53334;51.976;20.144;2023-03-13T00:48:08;4.55;;;3.67;;
36651;SDS011;53334;51.976;20.144;2023-03-13T00:50:42;5.85;;;4.28;;
36651;SDS011;53334;51.976;20.144;2023-03-13T00:53:16;7.90;;;3.90;;
36651;SDS011;53334;51.976;20.144;2023-03-13T00:55:50;7.65;;;4.13;;
36651;SDS011;53334;51.976;20.144;2023-03-13T00:58:25;6.03;;;3.83;;
36651;SDS011;53334;51.976;20.144;2023-03-13T01:01:05;6.53;;;4.60;;
36651;SDS011;53334;51.976;20.144;2023-03-13T01:03:40;8.68;;;4.82;;
36651;SDS011;53334;51.976;20.144;2023-03-13T01:06:15;5.65;;;3.92;;
36651;SDS011;53334;51.976;20.144;2023-03-13T01:08:52;8.23;;;4.40;;
36651;SDS011;53334;51.976;20.144;2023-03-13T01:11:26;4.75;;;3.60;;
36651;SDS011;53334;51.976;20.144;2023-03-13T01:14:02;5.55;;;3.85;;
36651;SDS011;53334;51.976;20.144;2023-03-13T01:16:38;6.22;;;3.75;;
36651;SDS011;53334;51.976;20.144;2023-03-13T01:19:12;5.95;;;3.75;;
36651;SDS011;53334;51.976;20.144;2023-03-13T01:21:46;6.18;;;4.50;;
36651;SDS011;53334;51.976;20.144;2023-03-13T01:24:21;5.05;;;3.85;;
36651;SDS011;53334;51.976;20.144;2023-03-13T01:26:55;4.95;;;3.90;;
36651;SDS011;53334;51.976;20.144;2023-03-13T01:29:28;5.75;;;4.38;;
36651;SDS011;53334;51.976;20.144;2023-03-13T01:34:37;6.70;;;4.10;;
36651;SDS011;53334;51.976;20.144;2023-03-13T01:37:11;5.15;;;3.72;;
36651;SDS011;53334;51.976;20.144;2023-03-13T01:39:45;8.95;;;4.20;;
36651;SDS011;53334;51.976;20.144;2023-03-13T01:42:19;5.32;;;3.40;;
36651;SDS011;53334;51.976;20.144;2023-03-13T01:44:53;8.90;;;4.13;;
36651;SDS011;53334;51.976;20.144;2023-03-13T01:47:29;6.60;;;3.78;;
36651;SDS011;53334;51.976;20.144;2023-03-13T01:50:13;7.20;;;3.85;;
36651;SDS011;53334;51.976;20.144;2023-03-13T01:53:06;6.80;;;4.03;;
36651;SDS011;53334;51.976;20.144;2023-03-13T01:55:41;7.57;;;3.97;;
36651;SDS011;53334;51.976;20.144;2023-03-13T01:58:14;12.20;;;4.70;;
36651;SDS011;53334;51.976;20.144;2023-03-13T02:00:47;6.95;;;3.67;;
36651;SDS011;53334;51.976;20.144;2023-03-13T02:03:21;7.32;;;4.13;;
36651;SDS011;53334;51.976;20.144;2023-03-13T02:05:55;6.28;;;4.25;;
36651;SDS011;53334;51.976;20.144;2023-03-13T02:08:34;6.68;;;3.78;;
36651;SDS011;53334;51.976;20.144;2023-03-13T02:11:15;9.02;;;3.95;;
36651;SDS011;53334;51.976;20.144;2023-03-13T02:13:56;5.07;;;3.17;;
36651;SDS011;53334;51.976;20.144;2023-03-13T02:16:32;5.28;;;3.58;;
36651;SDS011;53334;51.976;20.144;2023-03-13T02:19:10;5.55;;;3.55;;
36651;SDS011;53334;51.976;20.144;2023-03-13T02:21:51;5.15;;;4.03;;
36651;SDS011;53334;51.976;20.144;2023-03-13T02:24:29;4.65;;;3.13;;
36651;SDS011;53334;51.976;20.144;2023-03-13T02:27:08;6.80;;;3.60;;
36651;SDS011;53334;51.976;20.144;2023-03-13T02:29:44;27.45;;;3.95;;
36651;SDS011;53334;51.976;20.144;2023-03-13T02:32:18;3.58;;;3.03;;
36651;SDS011;53334;51.976;20.144;2023-03-13T02:34:53;5.30;;;3.33;;
36651;SDS011;53334;51.976;20.144;2023-03-13T02:37:30;5.72;;;3.70;;
36651;SDS011;53334;51.976;20.144;2023-03-13T02:40:06;8.40;;;3.88;;
36651;SDS011;53334;51.976;20.144;2023-03-13T02:42:44;7.65;;;3.50;;
36651;SDS011;53334;51.976;20.144;2023-03-13T02:45:18;5.65;;;3.17;;
36651;SDS011;53334;51.976;20.144;2023-03-13T02:50:25;6.65;;;3.72;;
36651;SDS011;53334;51.976;20.144;2023-03-13T02:53:00;6.82;;;3.40;;
36651;SDS011;53334;51.976;20.144;2023-03-13T02:55:37;5.57;;;3.30;;
36651;SDS011;53334;51.976;20.144;2023-03-13T02:58:16;8.13;;;4.13;;
36651;SDS011;53334;51.976;20.144;2023-03-13T03:00:49;5.32;;;3.15;;
36651;SDS011;53334;51.976;20.144;2023-03-13T03:05:56;4.35;;;3.15;;
36651;SDS011;53334;51.976;20.144;2023-03-13T03:11:04;4.50;;;2.90;;
36651;SDS011;53334;51.976;20.144;2023-03-13T03:13:38;4.97;;;3.72;;
36651;SDS011;53334;51.976;20.144;2023-03-13T03:16:12;4.63;;;3.10;;
36651;SDS011;53334;51.976;20.144;2023-03-13T03:18:49;5.55;;;3.40;;
36651;SDS011;53334;51.976;20.144;2023-03-13T03:21:23;7.97;;;3.03;;
36651;SDS011;53334;51.976;20.144;2023-03-13T03:23:56;6.13;;;3.10;;
36651;SDS011;53334;51.976;20.144;2023-03-13T03:26:30;6.63;;;2.95;;
36651;SDS011;53334;51.976;20.144;2023-03-13T03:29:05;5.55;;;3.38;;
36651;SDS011;53334;51.976;20.144;2023-03-13T03:31:39;4.13;;;3.30;;
36651;SDS011;53334;51.976;20.144;2023-03-13T03:36:46;6.80;;;3.05;;
36651;SDS011;53334;51.976;20.144;2023-03-13T03:39:19;4.07;;;2.78;;
36651;SDS011;53334;51.976;20.144;2023-03-13T03:41:53;5.40;;;3.05;;
36651;SDS011;53334;51.976;20.144;2023-03-13T03:44:28;5.35;;;3.13;;
36651;SDS011;53334;51.976;20.144;2023-03-13T03:47:03;9.82;;;3.40;;
36651;SDS011;53334;51.976;20.144;2023-03-13T03:49:41;5.78;;;3.15;;
36651;SDS011;53334;51.976;20.144;2023-03-13T03:52:16;4.95;;;3.33;;
36651;SDS011;53334;51.976;20.144;2023-03-13T03:54:50;5.65;;;3.17;;
36651;SDS011;53334;51.976;20.144;2023-03-13T03:57:24;8.00;;;3.20;;
36651;SDS011;53334;51.976;20.144;2023-03-13T03:59:58;6.97;;;3.20;;
36651;SDS011;53334;51.976;20.144;2023-03-13T04:02:33;4.18;;;2.63;;
36651;SDS011;53334;51.976;20.144;2023-03-13T04:05:06;5.88;;;2.58;;
36651;SDS011;53334;51.976;20.144;2023-03-13T04:07:42;4.05;;;2.83;;
36651;SDS011;53334;51.976;20.144;2023-03-13T04:10:16;4.82;;;3.08;;
36651;SDS011;53334;51.976;20.144;2023-03-13T04:12:49;5.57;;;3.10;;
36651;SDS011;53334;51.976;20.144;2023-03-13T04:15:24;6.15;;;2.72;;
36651;SDS011;53334;51.976;20.144;2023-03-13T04:17:58;4.82;;;3.03;;
36651;SDS011;53334;51.976;20.144;2023-03-13T04:20:31;5.03;;;2.78;;
36651;SDS011;53334;51.976;20.144;2023-03-13T04:23:04;6.10;;;3.50;;
36651;SDS011;53334;51.976;20.144;2023-03-13T04:25:38;4.60;;;2.95;;
36651;SDS011;53334;51.976;20.144;2023-03-13T04:28:14;5.00;;;2.50;;
36651;SDS011;53334;51.976;20.144;2023-03-13T04:30:49;4.20;;;2.72;;
36651;SDS011;53334;51.976;20.144;2023-03-13T04:33:54;4.50;;;2.40;;
36651;SDS011;53334;51.976;20.144;2023-03-13T04:36:47;4.90;;;2.10;;
36651;SDS011;53334;51.976;20.144;2023-03-13T04:39:41;4.00;;;2.75;;
36651;SDS011;53334;51.976;20.144;2023-03-13T04:42:50;7.50;;;3.03;;
36651;SDS011;53334;51.976;20.144;2023-03-13T04:45:54;8.27;;;3.85;;
36651;SDS011;53334;51.976;20.144;2023-03-13T04:48:27;3.55;;;2.67;;
36651;SDS011;53334;51.976;20.144;2023-03-13T04:51:13;6.60;;;2.75;;
36651;SDS011;53334;51.976;20.144;2023-03-13T04:53:55;6.30;;;3.00;;
36651;SDS011;53334;51.976;20.144;2023-03-13T04:56:41;4.38;;;2.60;;
36651;SDS011;53334;51.976;20.144;2023-03-13T04:59:33;4.65;;;2.53;;
36651;SDS011;53334;51.976;20.144;2023-03-13T05:02:26;11.80;;;3.50;;
36651;SDS011;53334;51.976;20.144;2023-03-13T05:05:15;3.97;;;2.42;;
36651;SDS011;53334;51.976;20.144;2023-03-13T05:07:58;4.28;;;2.33;;
36651;SDS011;53334;51.976;20.144;2023-03-13T05:10:40;5.63;;;3.17;;
36651;SDS011;53334;51.976;20.144;2023-03-13T05:13:46;4.70;;;2.45;;
36651;SDS011;53334;51.976;20.144;2023-03-13T05:16:32;7.53;;;2.78;;
36651;SDS011;53334;51.976;20.144;2023-03-13T05:19:19;7.05;;;2.53;;
36651;SDS011;53334;51.976;20.144;2023-03-13T05:22:12;4.97;;;2.45;;
36651;SDS011;53334;51.976;20.144;2023-03-13T05:25:04;6.53;;;2.97;;
36651;SDS011;53334;51.976;20.144;2023-03-13T05:28:05;11.57;;;2.83;;
36651;SDS011;53334;51.976;20.144;2023-03-13T05:31:08;5.90;;;2.45;;
36651;SDS011;53334;51.976;20.144;2023-03-13T05:33:59;3.47;;;2.42;;
36651;SDS011;53334;51.976;20.144;2023-03-13T05:36:59;5.95;;;2.40;;
36651;SDS011;53334;51.976;20.144;2023-03-13T05:39:48;6.68;;;2.88;;
36651;SDS011;53334;51.976;20.144;2023-03-13T05:42:37;4.32;;;2.20;;
36651;SDS011;53334;51.976;20.144;2023-03-13T05:45:22;5.80;;;2.50;;
36651;SDS011;53334;51.976;20.144;2023-03-13T05:48:14;3.50;;;2.42;;
36651;SDS011;53334;51.976;20.144;2023-03-13T05:51:17;3.45;;;2.38;;
36651;SDS011;53334;51.976;20.144;2023-03-13T05:54:00;7.13;;;2.75;;
36651;SDS011;53334;51.976;20.144;2023-03-13T05:56:52;2.63;;;2.03;;
36651;SDS011;53334;51.976;20.144;2023-03-13T05:59:48;4.50;;;2.15;;
36651;SDS011;53334;51.976;20.144;2023-03-13T06:02:43;3.88;;;2.58;;
36651;SDS011;53334;51.976;20.144;2023-03-13T06:05:22;3.33;;;2.30;;
36651;SDS011;53334;51.976;20.144;2023-03-13T06:07:56;7.43;;;2.20;;
36651;SDS011;53334;51.976;20.144;2023-03-13T06:10:31;5.10;;;2.83;;
36651;SDS011;53334;51.976;20.144;2023-03-13T06:13:05;5.50;;;2.58;;
36651;SDS011;53334;51.976;20.144;2023-03-13T06:15:52;5.70;;;2.30;;
36651;SDS011;53334;51.976;20.144;2023-03-13T06:18:43;5.28;;;3.40;;
36651;SDS011;53334;51.976;20.144;2023-03-13T06:21:17;4.28;;;3.45;;
36651;SDS011;53334;51.976;20.144;2023-03-13T06:23:50;6.53;;;4.28;;
36651;SDS011;53334;51.976;20.144;2023-03-13T06:26:25;5.13;;;4.05;;
36651;SDS011;53334;51.976;20.144;2023-03-13T06:28:58;4.75;;;3.22;;
36651;SDS011;53334;51.976;20.144;2023-03-13T06:31:31;7.10;;;4.47;;
36651;SDS011;53334;51.976;20.144;2023-03-13T06:36:40;9.63;;;3.05;;
36651;SDS011;53334;51.976;20.144;2023-03-13T06:39:13;6.15;;;3.67;;
36651;SDS011;53334;51.976;20.144;2023-03-13T06:41:48;7.72;;;3.30;;
36651;SDS011;53334;51.976;20.144;2023-03-13T06:44:21;9.07;;;4.32;;
36651;SDS011;53334;51.976;20.144;2023-03-13T06:46:55;8.77;;;3.00;;
36651;SDS011;53334;51.976;20.144;2023-03-13T06:49:28;9.07;;;3.55;;
36651;SDS011;53334;51.976;20.144;2023-03-13T06:52:01;7.03;;;3.30;;
36651;SDS011;53334;51.976;20.144;2023-03-13T06:54:35;4.05;;;3.08;;
36651;SDS011;53334;51.976;20.144;2023-03-13T06:57:10;10.85;;;3.90;;
36651;SDS011;53334;51.976;20.144;2023-03-13T06:59:43;8.90;;;3.65;;
36651;SDS011;53334;51.976;20.144;2023-03-13T07:02:16;7.32;;;4.15;;
36651;SDS011;53334;51.976;20.144;2023-03-13T07:04:50;5.70;;;3.63;;
36651;SDS011;53334;51.976;20.144;2023-03-13T07:07:23;10.88;;;3.40;;
36651;SDS011;53334;51.976;20.144;2023-03-13T07:10:03;8.57;;;3.28;;
36651;SDS011;53334;51.976;20.144;2023-03-13T07:12:38;7.85;;;3.35;;
36651;SDS011;53334;51.976;20.144;2023-03-13T07:15:11;6.18;;;3.20;;
36651;SDS011;53334;51.976;20.144;2023-03-13T07:17:45;4.75;;;3.05;;
36651;SDS011;53334;51.976;20.144;2023-03-13T07:20:18;9.32;;;3.22;;
36651;SDS011;53334;51.976;20.144;2023-03-13T07:22:51;3.92;;;3.25;;
36651;SDS011;53334;51.976;20.144;2023-03-13T07:25:25;4.60;;;2.33;;
36651;SDS011;53334;51.976;20.144;2023-03-13T07:28:00;12.10;;;3.35;;
36651;SDS011;53334;51.976;20.144;2023-03-13T07:30:33;13.70;;;4.45;;
36651;SDS011;53334;51.976;20.144;2023-03-13T07:33:06;9.55;;;4.40;;
36651;SDS011;53334;51.976;20.144;2023-03-13T07:35:39;28.30;;;10.40;;
36651;SDS011;53334;51.976;20.144;2023-03-13T07:38:13;40.15;;;13.00;;
36651;SDS011;53334;51.976;20.144;2023-03-13T07:40:47;40.85;;;13.73;;
36651;SDS011;53334;51.976;20.144;2023-03-13T07:43:22;45.13;;;15.07;;
36651;SDS011;53334;51.976;20.144;2023-03-13T07:45:57;34.20;;;13.07;;
36651;SDS011;53334;51.976;20.144;2023-03-13T07:48:32;37.58;;;12.98;;
36651;SDS011;53334;51.976;20.144;2023-03-13T07:51:07;25.20;;;11.55;;
36651;SDS011;53334;51.976;20.144;2023-03-13T07:53:43;24.40;;;10.35;;
36651;SDS011;53334;51.976;20.144;2023-03-13T07:56:18;27.77;;;11.45;;
36651;SDS011;53334;51.976;20.144;2023-03-13T07:58:54;32.50;;;10.85;;
36651;SDS011;53334;51.976;20.144;2023-03-13T08:01:28;24.63;;;10.23;;
36651;SDS011;53334;51.976;20.144;2023-03-13T08:06:36;23.13;;;9.55;;
36651;SDS011;53334;51.976;20.144;2023-03-13T08:09:11;23.25;;;8.82;;
36651;SDS011;53334;51.976;20.144;2023-03-13T08:11:45;33.65;;;9.43;;
36651;SDS011;53334;51.976;20.144;2023-03-13T08:14:20;19.20;;;8.75;;
36651;SDS011;53334;51.976;20.144;2023-03-13T08:16:54;20.67;;;7.05;;
36651;SDS011;53334;51.976;20.144;2023-03-13T08:19:27;16.90;;;7.70;;
36651;SDS011;53334;51.976;20.144;2023-03-13T08:22:01;17.80;;;7.07;;
36651;SDS011;53334;51.976;20.144;2023-03-13T08:24:34;80.57;;;29.33;;
36651;SDS011;53334;51.976;20.144;2023-03-13T08:27:08;388.00;;;156.45;;
36651;SDS011;53334;51.976;20.144;2023-03-13T08:29:42;280.98;;;112.63;;
36651;SDS011;53334;51.976;20.144;2023-03-13T08:32:16;252.73;;;98.15;;
36651;SDS011;53334;51.976;20.144;2023-03-13T08:34:49;209.43;;;85.53;;
36651;SDS011;53334;51.976;20.144;2023-03-13T08:37:23;191.93;;;79.57;;
36651;SDS011;53334;51.976;20.144;2023-03-13T08:39:56;184.35;;;79.18;;
36651;SDS011;53334;51.976;20.144;2023-03-13T08:42:30;176.25;;;69.22;;
36651;SDS011;53334;51.976;20.144;2023-03-13T08:45:05;169.40;;;70.03;;
36651;SDS011;53334;51.976;20.144;2023-03-13T08:47:39;137.13;;;57.20;;
36651;SDS011;53334;51.976;20.144;2023-03-13T08:50:12;135.07;;;56.40;;
36651;SDS011;53334;51.976;20.144;2023-03-13T08:52:46;145.80;;;53.50;;
36651;SDS011;53334;51.976;20.144;2023-03-13T08:55:19;126.55;;;47.45;;
36651;SDS011;53334;51.976;20.144;2023-03-13T08:57:52;123.97;;;44.45;;
36651;SDS011;53334;51.976;20.144;2023-03-13T09:00:27;93.65;;;40.72;;
36651;SDS011;53334;51.976;20.144;2023-03-13T09:03:00;103.95;;;38.13;;
36651;SDS011;53334;51.976;20.144;2023-03-13T09:05:35;89.55;;;34.97;;
36651;SDS011;53334;51.976;20.144;2023-03-13T09:08:25;81.25;;;32.40;;
36651;SDS011;53334;51.976;20.144;2023-03-13T09:11:00;73.45;;;31.05;;
36651;SDS011;53334;51.976;20.144;2023-03-13T09:13:36;82.10;;;31.77;;
36651;SDS011;53334;51.976;20.144;2023-03-13T09:16:13;65.32;;;27.92;;
36651;SDS011;53334;51.976;20.144;2023-03-13T09:18:47;70.25;;;24.30;;
36651;SDS011;53334;51.976;20.144;2023-03-13T09:21:21;63.63;;;24.88;;
36651;SDS011;53334;51.976;20.144;2023-03-13T09:23:56;60.50;;;22.30;;
36651;SDS011;53334;51.976;20.144;2023-03-13T09:26:29;57.53;;;21.75;;
36651;SDS011;53334;51.976;20.144;2023-03-13T09:29:03;67.72;;;23.88;;
36651;SDS011;53334;51.976;20.144;2023-03-13T09:31:37;59.22;;;22.17;;
36651;SDS011;53334;51.976;20.144;2023-03-13T09:34:12;56.47;;;20.48;;
36651;SDS011;53334;51.976;20.144;2023-03-13T09:36:45;52.40;;;21.00;;
36651;SDS011;53334;51.976;20.144;2023-03-13T09:39:18;65.85;;;19.63;;
36651;SDS011;53334;51.976;20.144;2023-03-13T09:41:53;56.45;;;19.50;;
36651;SDS011;53334;51.976;20.144;2023-03-13T09:44:34;50.85;;;18.95;;
36651;SDS011;53334;51.976;20.144;2023-03-13T09:47:17;57.95;;;19.55;;
36651;SDS011;53334;51.976;20.144;2023-03-13T09:49:56;51.13;;;17.67;;
36651;SDS011;53334;51.976;20.144;2023-03-13T09:52:33;50.33;;;17.90;;
36651;SDS011;53334;51.976;20.144;2023-03-13T09:55:12;43.20;;;17.13;;
36651;SDS011;53334;51.976;20.144;2023-03-13T09:57:51;58.50;;;17.70;;
36651;SDS011;53334;51.976;20.144;2023-03-13T10:00:28;47.30;;;16.63;;
36651;SDS011;53334;51.976;20.144;2023-03-13T10:03:06;43.33;;;16.02;;
36651;SDS011;53334;51.976;20.144;2023-03-13T10:05:47;37.28;;;14.13;;
36651;SDS011;53334;51.976;20.144;2023-03-13T10:08:22;46.53;;;15.60;;
36651;SDS011;53334;51.976;20.144;2023-03-13T10:10:57;45.47;;;13.07;;
36651;SDS011;53334;51.976;20.144;2023-03-13T10:13:36;49.45;;;13.30;;
36651;SDS011;53334;51.976;20.144;2023-03-13T10:16:14;30.55;;;12.52;;
36651;SDS011;53334;51.976;20.144;2023-03-13T10:18:55;32.70;;;12.23;;
36651;SDS011;53334;51.976;20.144;2023-03-13T10:21:31;36.97;;;12.07;;
36651;SDS011;53334;51.976;20.144;2023-03-13T10:24:09;33.03;;;11.20;;
36651;SDS011;53334;51.976;20.144;2023-03-13T10:26:47;37.80;;;12.98;;
36651;SDS011;53334;51.976;20.144;2023-03-13T10:29:21;38.58;;;12.18;;
36651;SDS011;53334;51.976;20.144;2023-03-13T10:31:57;28.10;;;10.23;;
36651;SDS011;53334;51.976;20.144;2023-03-13T10:34:45;30.88;;;10.40;;
36651;SDS011;53334;51.976;20.144;2023-03-13T10:37:27;20.47;;;9.50;;
36651;SDS011;53334;51.976;20.144;2023-03-13T10:40:10;20.80;;;8.43;;
36651;SDS011;53334;51.976;20.144;2023-03-13T10:42:45;16.50;;;7.65;;
36651;SDS011;53334;51.976;20.144;2023-03-13T10:45:20;17.00;;;6.95;;
36651;SDS011;53334;51.976;20.144;2023-03-13T10:47:56;16.05;;;7.88;;
36651;SDS011;53334;51.976;20.144;2023-03-13T10:50:34;16.08;;;7.53;;
36651;SDS011;53334;51.976;20.144;2023-03-13T10:53:18;18.05;;;6.03;;
36651;SDS011;53334;51.976;20.144;2023-03-13T10:55:54;11.07;;;5.88;;
36651;SDS011;53334;51.976;20.144;2023-03-13T10:58:32;16.00;;;5.57;;
36651;SDS011;53334;51.976;20.144;2023-03-13T11:01:15;11.95;;;5.32;;
36651;SDS011;53334;51.976;20.144;2023-03-13T11:03:51;13.55;;;5.50;;
36651;SDS011;53334;51.976;20.144;2023-03-13T11:06:29;17.63;;;6.65;;
36651;SDS011;53334;51.976;20.144;2023-03-13T11:09:04;19.80;;;6.72;;
36651;SDS011;53334;51.976;20.144;2023-03-13T11:11:45;14.40;;;5.80;;
36651;SDS011;53334;51.976;20.144;2023-03-13T11:14:21;13.18;;;5.85;;
36651;SDS011;53334;51.976;20.144;2023-03-13T11:16:57;11.57;;;4.38;;
36651;SDS011;53334;51.976;20.144;2023-03-13T11:19:40;12.90;;;5.07;;
36651;SDS011;53334;51.976;20.144;2023-03-13T11:22:37;11.82;;;4.75;;
36651;SDS011;53334;51.976;20.144;2023-03-13T11:25:36;23.70;;;5.93;;
36651;SDS011;53334;51.976;20.144;2023-03-13T11:31:09;9.07;;;4.63;;
36651;SDS011;53334;51.976;20.144;2023-03-13T11:33:46;9.52;;;4.18;;
36651;SDS011;53334;51.976;20.144;2023-03-13T11:36:30;13.07;;;4.78;;
36651;SDS011;53334;51.976;20.144;2023-03-13T11:39:15;9.10;;;4.40;;
36651;SDS011;53334;51.976;20.144;2023-03-13T11:42:07;7.80;;;4.18;;
36651;SDS011;53334;51.976;20.144;2023-03-13T11:44:47;7.57;;;3.90;;
36651;SDS011;53334;51.976;20.144;2023-03-13T11:47:40;10.07;;;4.32;;
36651;SDS011;53334;51.976;20.144;2023-03-13T11:50:26;13.27;;;4.70;;
36651;SDS011;53334;51.976;20.144;2023-03-13T11:53:18;6.65;;;4.22;;
36651;SDS011;53334;51.976;20.144;2023-03-13T11:56:02;9.48;;;3.95;;
36651;SDS011;53334;51.976;20.144;2023-03-13T11:58:43;6.97;;;4.00;;
36651;SDS011;53334;51.976;20.144;2023-03-13T12:01:36;8.00;;;4.05;;
36651;SDS011;53334;51.976;20.144;2023-03-13T12:04:12;8.10;;;4.15;;
36651;SDS011;53334;51.976;20.144;2023-03-13T12:06:50;10.52;;;3.97;;
36651;SDS011;53334;51.976;20.144;2023-03-13T12:09:26;5.85;;;3.42;;
36651;SDS011;53334;51.976;20.144;2023-03-13T12:12:08;12.25;;;3.92;;
36651;SDS011;53334;51.976;20.144;2023-03-13T12:17:27;6.75;;;3.30;;
36651;SDS011;53334;51.976;20.144;2023-03-13T12:20:05;9.82;;;3.65;;
36651;SDS011;53334;51.976;20.144;2023-03-13T12:22:47;6.07;;;3.45;;
36651;SDS011;53334;51.976;20.144;2023-03-13T12:25:26;10.52;;;3.85;;
36651;SDS011;53334;51.976;20.144;2023-03-13T12:28:08;7.25;;;3.90;;
36651;SDS011;53334;51.976;20.144;2023-03-13T12:31:03;5.63;;;3.33;;
36651;SDS011;53334;51.976;20.144;2023-03-13T12:33:46;12.52;;;4.85;;
36651;SDS011;53334;51.976;20.144;2023-03-13T12:36:25;11.18;;;4.95;;
36651;SDS011;53334;51.976;20.144;2023-03-13T12:39:08;10.98;;;4.40;;
36651;SDS011;53334;51.976;20.144;2023-03-13T12:41:48;8.77;;;4.25;;
36651;SDS011;53334;51.976;20.144;2023-03-13T12:44:34;11.43;;;4.32;;
36651;SDS011;53334;51.976;20.144;2023-03-13T12:47:08;10.77;;;4.60;;
36651;SDS011;53334;51.976;20.144;2023-03-13T12:58:50;10.38;;;4.88;;
36651;SDS011;53334;51.976;20.144;2023-03-13T13:01:29;9.77;;;4.35;;
36651;SDS011;53334;51.976;20.144;2023-03-13T13:04:06;10.10;;;4.82;;
36651;SDS011;53334;51.976;20.144;2023-03-13T13:06:54;12.95;;;5.03;;
36651;SDS011;53334;51.976;20.144;2023-03-13T13:09:32;14.07;;;5.00;;
36651;SDS011;53334;51.976;20.144;2023-03-13T13:12:17;10.98;;;4.47;;
36651;SDS011;53334;51.976;20.144;2023-03-13T13:14:56;10.25;;;4.43;;
36651;SDS011;53334;51.976;20.144;2023-03-13T13:17:42;7.90;;;4.45;;
36651;SDS011;53334;51.976;20.144;2023-03-13T13:20:40;9.57;;;3.97;;
36651;SDS011;53334;51.976;20.144;2023-03-13T13:23:20;11.88;;;4.13;;
36651;SDS011;53334;51.976;20.144;2023-03-13T13:25:55;13.45;;;5.00;;
36651;SDS011;53334;51.976;20.144;2023-03-13T13:32:33;6.13;;;3.88;;
36651;SDS011;53334;51.976;20.144;2023-03-13T13:35:21;8.95;;;4.43;;
36651;SDS011;53334;51.976;20.144;2023-03-13T13:47:02;10.98;;;4.10;;
36651;SDS011;53334;51.976;20.144;2023-03-13T13:49:36;7.57;;;4.18;;
36651;SDS011;53334;51.976;20.144;2023-03-13T13:58:04;14.68;;;4.45;;
36651;SDS011;53334;51.976;20.144;2023-03-13T14:00:44;12.30;;;3.45;;
36651;SDS011;53334;51.976;20.144;2023-03-13T14:03:24;16.98;;;4.43;;
36651;SDS011;53334;51.976;20.144;2023-03-13T14:05:59;15.52;;;4.95;;
36651;SDS011;53334;51.976;20.144;2023-03-13T14:08:36;20.20;;;4.38;;
36651;SDS011;53334;51.976;20.144;2023-03-13T14:11:18;11.50;;;3.97;;
36651;SDS011;53334;51.976;20.144;2023-03-13T14:14:09;10.85;;;4.40;;
36651;SDS011;53334;51.976;20.144;2023-03-13T14:16:46;12.95;;;4.95;;
36651;SDS011;53334;51.976;20.144;2023-03-13T14:19:21;13.18;;;4.15;;
36651;SDS011;53334;51.976;20.144;2023-03-13T14:21:58;14.23;;;4.63;;
36651;SDS011;53334;51.976;20.144;2023-03-13T14:24:34;12.07;;;3.78;;
36651;SDS011;53334;51.976;20.144;2023-03-13T14:27:14;21.02;;;3.83;;
36651;SDS011;53334;51.976;20.144;2023-03-13T14:32:37;14.07;;;3.88;;
36651;SDS011;53334;51.976;20.144;2023-03-13T14:37:47;8.18;;;2.72;;
36651;SDS011;53334;51.976;20.144;2023-03-13T14:40:24;20.30;;;4.53;;
36651;SDS011;53334;51.976;20.144;2023-03-13T14:43:00;11.68;;;4.05;;
36651;SDS011;53334;51.976;20.144;2023-03-13T14:45:35;8.13;;;3.60;;
36651;SDS011;53334;51.976;20.144;2023-03-13T14:48:11;10.13;;;3.90;;
36651;SDS011;53334;51.976;20.144;2023-03-13T14:50:50;8.05;;;3.70;;
36651;SDS011;53334;51.976;20.144;2023-03-13T14:53:55;9.57;;;3.78;;
36651;SDS011;53334;51.976;20.144;2023-03-13T14:56:32;10.25;;;3.92;;
36651;SDS011;53334;51.976;20.144;2023-03-13T14:59:11;9.13;;;3.50;;
36651;SDS011;53334;51.976;20.144;2023-03-13T15:01:56;8.88;;;3.72;;
36651;SDS011;53334;51.976;20.144;2023-03-13T15:04:46;26.30;;;3.95;;
36651;SDS011;53334;51.976;20.144;2023-03-13T15:07:20;14.18;;;5.05;;
36651;SDS011;53334;51.976;20.144;2023-03-13T15:09:55;294.75;;;111.10;;
36651;SDS011;53334;51.976;20.144;2023-03-13T15:12:29;310.23;;;118.80;;
36651;SDS011;53334;51.976;20.144;2023-03-13T15:15:12;585.90;;;271.58;;
36651;SDS011;53334;51.976;20.144;2023-03-13T15:17:45;540.60;;;248.02;;
36651;SDS011;53334;51.976;20.144;2023-03-13T15:20:19;630.90;;;307.73;;
36651;SDS011;53334;51.976;20.144;2023-03-13T15:22:53;602.45;;;283.35;;
36651;SDS011;53334;51.976;20.144;2023-03-13T15:25:26;537.88;;;242.38;;
36651;SDS011;53334;51.976;20.144;2023-03-13T15:28:01;501.80;;;222.60;;
36651;SDS011;53334;51.976;20.144;2023-03-13T15:30:34;446.85;;;186.98;;
36651;SDS011;53334;51.976;20.144;2023-03-13T15:33:10;421.02;;;165.25;;
36651;SDS011;53334;51.976;20.144;2023-03-13T15:35:46;357.65;;;144.38;;
36651;SDS011;53334;51.976;20.144;2023-03-13T15:38:20;318.13;;;125.65;;
36651;SDS011;53334;51.976;20.144;2023-03-13T15:40:55;270.60;;;113.68;;
36651;SDS011;53334;51.976;20.144;2023-03-13T15:43:30;267.60;;;106.65;;
36651;SDS011;53334;51.976;20.144;2023-03-13T15:46:05;256.45;;;105.80;;
36651;SDS011;53334;51.976;20.144;2023-03-13T15:48:42;215.50;;;92.65;;
36651;SDS011;53334;51.976;20.144;2023-03-13T15:51:16;206.68;;;85.65;;
36651;SDS011;53334;51.976;20.144;2023-03-13T15:53:49;214.38;;;84.35;;
36651;SDS011;53334;51.976;20.144;2023-03-13T15:56:24;197.18;;;81.00;;
36651;SDS011;53334;51.976;20.144;2023-03-13T15:59:07;184.85;;;77.10;;
36651;SDS011;53334;51.976;20.144;2023-03-13T16:01:43;171.15;;;72.30;;
36651;SDS011;53334;51.976;20.144;2023-03-13T16:04:16;173.32;;;73.32;;
36651;SDS011;53334;51.976;20.144;2023-03-13T16:06:49;167.38;;;70.10;;
36651;SDS011;53334;51.976;20.144;2023-03-13T16:09:23;160.85;;;65.40;;
36651;SDS011;53334;51.976;20.144;2023-03-13T16:11:56;152.02;;;64.75;;
36651;SDS011;53334;51.976;20.144;2023-03-13T16:14:31;140.63;;;61.08;;
36651;SDS011;53334;51.976;20.144;2023-03-13T16:17:09;149.73;;;58.05;;
36651;SDS011;53334;51.976;20.144;2023-03-13T16:19:45;134.68;;;55.03;;
36651;SDS011;53334;51.976;20.144;2023-03-13T16:22:18;117.60;;;52.75;;
36651;SDS011;53334;51.976;20.144;2023-03-13T16:24:52;121.53;;;53.50;;